CYAW/YAW METAR and TAF weather

Enter ICAO airport designator
Station Type Date Time Source
CYAW METAR 2019/12/13 20:50 UTC NOAA

CYAW 132050Z 16010KT 15SM BKN031 OVC250 01/M05 A3060 RMK SC5CI3 DA-2294FT LAST OBS / NXT 161100 UTC SLP365


Station Type Date Time Source
CYAW Decoded METAR 2019/12/13 20:50 UTC NOAA

Shearwater, N. S., Canada (CYAW) 44-38N 063-30W 51M
Dec 13, 2019 - 03:50 PM EST / 2019.12.13 2050 UTC
Wind: from the SSE (160 degrees) at 12 MPH (10 KT):0
Visibility: 15 mile(s):0
Sky conditions: overcast
Temperature: 33 F (1 C)
Windchill: 24 F (-4 C):1
Dew Point: 23 F (-5 C)
Relative Humidity: 64%
Pressure (altimeter): 30.6 in. Hg (1036 hPa)
ob: CYAW 132050Z 16010KT 15SM BKN031 OVC250 01/M05 A3060 RMK SC5CI3 DA-2294FT LAST OBS / NXT 161100 UTC SLP365
cycle: 21

Station Type Date Time Source
CYAW TAF 2019/12/13 18:35 UTC NOAA

TAF CYAW 131730Z 1318/1406 19010KT P6SM FEW030 BKN240
FM132300 17010KT P6SM BKN020 BKN220
TEMPO 1323/1406 BKN025
RMK NXT FCST BY 140000Z

Example: see airport list